sensor_id;sensor_type;location;lat;lon;timestamp;P1;durP1;ratioP1;P2;durP2;ratioP2
76807;SDS011;65758;45.458;11.062;2023-04-01T00:01:22;18.10;;;12.60;;
76807;SDS011;65758;45.458;11.062;2023-04-01T00:03:49;14.50;;;11.40;;
76807;SDS011;65758;45.458;11.062;2023-04-01T00:06:18;17.90;;;12.20;;
76807;SDS011;65758;45.458;11.062;2023-04-01T00:08:45;17.50;;;11.40;;
76807;SDS011;65758;45.458;11.062;2023-04-01T00:11:13;18.20;;;11.70;;
76807;SDS011;65758;45.458;11.062;2023-04-01T00:13:42;19.20;;;11.70;;
76807;SDS011;65758;45.458;11.062;2023-04-01T00:16:09;18.40;;;11.80;;
76807;SDS011;65758;45.458;11.062;2023-04-01T00:18:47;18.40;;;11.30;;
76807;SDS011;65758;45.458;11.062;2023-04-01T00:21:14;17.20;;;11.40;;
76807;SDS011;65758;45.458;11.062;2023-04-01T00:23:42;17.50;;;11.50;;
76807;SDS011;65758;45.458;11.062;2023-04-01T00:26:10;15.80;;;11.00;;
76807;SDS011;65758;45.458;11.062;2023-04-01T00:28:39;20.80;;;12.30;;
76807;SDS011;65758;45.458;11.062;2023-04-01T00:31:07;18.40;;;12.50;;
76807;SDS011;65758;45.458;11.062;2023-04-01T00:33:35;18.90;;;11.30;;
76807;SDS011;65758;45.458;11.062;2023-04-01T00:36:06;22.40;;;12.60;;
76807;SDS011;65758;45.458;11.062;2023-04-01T00:38:34;20.90;;;13.40;;
76807;SDS011;65758;45.458;11.062;2023-04-01T00:41:02;16.40;;;12.40;;
76807;SDS011;65758;45.458;11.062;2023-04-01T00:43:30;22.10;;;12.80;;
76807;SDS011;65758;45.458;11.062;2023-04-01T00:45:57;23.50;;;13.50;;
76807;SDS011;65758;45.458;11.062;2023-04-01T00:48:31;19.60;;;12.70;;
76807;SDS011;65758;45.458;11.062;2023-04-01T00:51:04;16.60;;;12.10;;
76807;SDS011;65758;45.458;11.062;2023-04-01T00:53:34;17.30;;;12.20;;
76807;SDS011;65758;45.458;11.062;2023-04-01T00:56:05;16.70;;;12.60;;
76807;SDS011;65758;45.458;11.062;2023-04-01T00:58:38;15.70;;;11.90;;
76807;SDS011;65758;45.458;11.062;2023-04-01T01:01:10;16.50;;;11.00;;
76807;SDS011;65758;45.458;11.062;2023-04-01T01:03:37;17.80;;;11.60;;
76807;SDS011;65758;45.458;11.062;2023-04-01T01:06:11;18.00;;;11.50;;
76807;SDS011;65758;45.458;11.062;2023-04-01T01:08:57;18.00;;;12.50;;
76807;SDS011;65758;45.458;11.062;2023-04-01T01:11:53;18.70;;;12.10;;
76807;SDS011;65758;45.458;11.062;2023-04-01T01:17:33;16.10;;;10.40;;
76807;SDS011;65758;45.458;11.062;2023-04-01T01:25:29;16.40;;;11.00;;
76807;SDS011;65758;45.458;11.062;2023-04-01T01:34:24;15.00;;;10.60;;
76807;SDS011;65758;45.458;11.062;2023-04-01T01:37:01;14.40;;;10.40;;
76807;SDS011;65758;45.458;11.062;2023-04-01T01:39:34;16.10;;;11.80;;
76807;SDS011;65758;45.458;11.062;2023-04-01T01:42:04;13.40;;;11.00;;
76807;SDS011;65758;45.458;11.062;2023-04-01T01:44:35;15.20;;;12.00;;
76807;SDS011;65758;45.458;11.062;2023-04-01T01:47:04;16.20;;;11.40;;
76807;SDS011;65758;45.458;11.062;2023-04-01T01:49:32;18.40;;;11.80;;
76807;SDS011;65758;45.458;11.062;2023-04-01T01:52:02;16.90;;;12.00;;
76807;SDS011;65758;45.458;11.062;2023-04-01T01:54:30;16.10;;;11.60;;
76807;SDS011;65758;45.458;11.062;2023-04-01T01:57:03;15.00;;;11.00;;
76807;SDS011;65758;45.458;11.062;2023-04-01T01:59:35;16.30;;;11.40;;
76807;SDS011;65758;45.458;11.062;2023-04-01T02:02:05;16.60;;;12.00;;
76807;SDS011;65758;45.458;11.062;2023-04-01T02:04:35;17.40;;;10.40;;
76807;SDS011;65758;45.458;11.062;2023-04-01T02:07:07;15.10;;;10.90;;
76807;SDS011;65758;45.458;11.062;2023-04-01T02:09:38;15.20;;;11.60;;
76807;SDS011;65758;45.458;11.062;2023-04-01T02:12:06;16.00;;;11.20;;
76807;SDS011;65758;45.458;11.062;2023-04-01T02:14:50;17.60;;;12.40;;
76807;SDS011;65758;45.458;11.062;2023-04-01T02:17:21;16.80;;;11.80;;
76807;SDS011;65758;45.458;11.062;2023-04-01T02:19:55;15.90;;;10.90;;
76807;SDS011;65758;45.458;11.062;2023-04-01T02:22:26;15.50;;;12.20;;
76807;SDS011;65758;45.458;11.062;2023-04-01T02:25:03;13.50;;;10.40;;
76807;SDS011;65758;45.458;11.062;2023-04-01T02:27:33;15.40;;;10.50;;
76807;SDS011;65758;45.458;11.062;2023-04-01T02:30:00;16.20;;;11.30;;
76807;SDS011;65758;45.458;11.062;2023-04-01T02:32:27;15.10;;;10.10;;
76807;SDS011;65758;45.458;11.062;2023-04-01T02:34:55;14.70;;;10.70;;
76807;SDS011;65758;45.458;11.062;2023-04-01T02:37:22;15.50;;;11.00;;
76807;SDS011;65758;45.458;11.062;2023-04-01T02:39:49;16.40;;;11.20;;
76807;SDS011;65758;45.458;11.062;2023-04-01T02:42:16;17.10;;;11.00;;
76807;SDS011;65758;45.458;11.062;2023-04-01T02:44:43;18.40;;;11.80;;
76807;SDS011;65758;45.458;11.062;2023-04-01T02:47:09;20.50;;;12.60;;
76807;SDS011;65758;45.458;11.062;2023-04-01T02:49:36;15.10;;;10.80;;
76807;SDS011;65758;45.458;11.062;2023-04-01T02:52:03;15.10;;;10.40;;
76807;SDS011;65758;45.458;11.062;2023-04-01T02:54:30;16.00;;;11.40;;
76807;SDS011;65758;45.458;11.062;2023-04-01T02:56:57;17.00;;;11.20;;
76807;SDS011;65758;45.458;11.062;2023-04-01T02:59:23;17.60;;;10.70;;
76807;SDS011;65758;45.458;11.062;2023-04-01T03:01:50;18.20;;;11.30;;
76807;SDS011;65758;45.458;11.062;2023-04-01T03:04:17;14.60;;;10.30;;
76807;SDS011;65758;45.458;11.062;2023-04-01T03:06:44;14.90;;;9.40;;
76807;SDS011;65758;45.458;11.062;2023-04-01T03:09:10;12.70;;;9.90;;
76807;SDS011;65758;45.458;11.062;2023-04-01T03:11:37;15.20;;;10.90;;
76807;SDS011;65758;45.458;11.062;2023-04-01T03:14:04;14.40;;;9.70;;
76807;SDS011;65758;45.458;11.062;2023-04-01T03:16:31;19.20;;;12.80;;
76807;SDS011;65758;45.458;11.062;2023-04-01T03:18:58;21.60;;;13.00;;
76807;SDS011;65758;45.458;11.062;2023-04-01T03:21:26;19.00;;;11.50;;
76807;SDS011;65758;45.458;11.062;2023-04-01T03:23:53;15.80;;;11.70;;
76807;SDS011;65758;45.458;11.062;2023-04-01T03:26:20;14.80;;;10.50;;
76807;SDS011;65758;45.458;11.062;2023-04-01T03:28:48;17.40;;;11.70;;
76807;SDS011;65758;45.458;11.062;2023-04-01T03:31:15;16.50;;;10.50;;
76807;SDS011;65758;45.458;11.062;2023-04-01T03:33:46;19.00;;;11.40;;
76807;SDS011;65758;45.458;11.062;2023-04-01T03:36:13;14.40;;;11.00;;
76807;SDS011;65758;45.458;11.062;2023-04-01T03:38:40;16.30;;;11.40;;
76807;SDS011;65758;45.458;11.062;2023-04-01T03:41:14;15.20;;;10.50;;
76807;SDS011;65758;45.458;11.062;2023-04-01T03:43:42;16.10;;;11.40;;
76807;SDS011;65758;45.458;11.062;2023-04-01T03:46:10;13.00;;;10.50;;
76807;SDS011;65758;45.458;11.062;2023-04-01T03:48:38;16.30;;;11.00;;
76807;SDS011;65758;45.458;11.062;2023-04-01T03:51:07;15.00;;;11.10;;
76807;SDS011;65758;45.458;11.062;2023-04-01T03:53:35;15.10;;;10.30;;
76807;SDS011;65758;45.458;11.062;2023-04-01T03:56:06;16.60;;;10.80;;
76807;SDS011;65758;45.458;11.062;2023-04-01T03:58:34;19.10;;;11.50;;
76807;SDS011;65758;45.458;11.062;2023-04-01T04:01:02;14.60;;;10.20;;
76807;SDS011;65758;45.458;11.062;2023-04-01T04:03:29;18.70;;;10.70;;
76807;SDS011;65758;45.458;11.062;2023-04-01T04:05:56;16.40;;;10.80;;
76807;SDS011;65758;45.458;11.062;2023-04-01T04:08:23;16.40;;;11.50;;
76807;SDS011;65758;45.458;11.062;2023-04-01T04:10:56;16.60;;;10.90;;
76807;SDS011;65758;45.458;11.062;2023-04-01T04:13:23;15.90;;;10.60;;
76807;SDS011;65758;45.458;11.062;2023-04-01T04:15:55;17.80;;;11.60;;
76807;SDS011;65758;45.458;11.062;2023-04-01T04:18:22;15.40;;;10.30;;
76807;SDS011;65758;45.458;11.062;2023-04-01T04:20:49;13.60;;;10.80;;
76807;SDS011;65758;45.458;11.062;2023-04-01T04:23:18;17.00;;;11.20;;
76807;SDS011;65758;45.458;11.062;2023-04-01T04:25:55;19.40;;;13.00;;
76807;SDS011;65758;45.458;11.062;2023-04-01T04:28:30;20.90;;;13.70;;
76807;SDS011;65758;45.458;11.062;2023-04-01T04:30:58;20.00;;;13.90;;
76807;SDS011;65758;45.458;11.062;2023-04-01T04:33:27;23.20;;;15.00;;
76807;SDS011;65758;45.458;11.062;2023-04-01T04:35:56;21.50;;;14.80;;
76807;SDS011;65758;45.458;11.062;2023-04-01T04:38:25;20.90;;;14.50;;
76807;SDS011;65758;45.458;11.062;2023-04-01T04:40:53;19.40;;;13.10;;
76807;SDS011;65758;45.458;11.062;2023-04-01T04:43:20;22.80;;;14.80;;
76807;SDS011;65758;45.458;11.062;2023-04-01T04:45:47;19.00;;;13.40;;
76807;SDS011;65758;45.458;11.062;2023-04-01T04:48:15;16.00;;;11.10;;
76807;SDS011;65758;45.458;11.062;2023-04-01T04:50:46;16.00;;;11.10;;
76807;SDS011;65758;45.458;11.062;2023-04-01T04:53:15;16.00;;;10.50;;
76807;SDS011;65758;45.458;11.062;2023-04-01T04:55:44;15.90;;;11.20;;
76807;SDS011;65758;45.458;11.062;2023-04-01T04:58:23;15.00;;;10.90;;
76807;SDS011;65758;45.458;11.062;2023-04-01T05:00:50;15.50;;;11.00;;
76807;SDS011;65758;45.458;11.062;2023-04-01T05:03:21;14.90;;;10.70;;
76807;SDS011;65758;45.458;11.062;2023-04-01T05:05:49;18.70;;;11.50;;
76807;SDS011;65758;45.458;11.062;2023-04-01T05:08:18;18.10;;;11.50;;
76807;SDS011;65758;45.458;11.062;2023-04-01T05:10:45;15.30;;;11.30;;
76807;SDS011;65758;45.458;11.062;2023-04-01T05:13:12;14.40;;;10.90;;
76807;SDS011;65758;45.458;11.062;2023-04-01T05:15:39;15.30;;;10.70;;
76807;SDS011;65758;45.458;11.062;2023-04-01T05:18:06;14.00;;;10.90;;
76807;SDS011;65758;45.458;11.062;2023-04-01T05:20:33;19.40;;;11.20;;
76807;SDS011;65758;45.458;11.062;2023-04-01T05:23:00;15.20;;;11.10;;
76807;SDS011;65758;45.458;11.062;2023-04-01T05:25:28;13.20;;;10.20;;
76807;SDS011;65758;45.458;11.062;2023-04-01T05:27:55;13.80;;;8.90;;
76807;SDS011;65758;45.458;11.062;2023-04-01T05:30:22;11.80;;;7.50;;
76807;SDS011;65758;45.458;11.062;2023-04-01T05:33:27;17.30;;;9.20;;
76807;SDS011;65758;45.458;11.062;2023-04-01T05:35:55;13.80;;;8.30;;
76807;SDS011;65758;45.458;11.062;2023-04-01T05:38:22;22.10;;;9.40;;
76807;SDS011;65758;45.458;11.062;2023-04-01T05:40:49;11.60;;;7.90;;
76807;SDS011;65758;45.458;11.062;2023-04-01T05:43:16;12.20;;;8.40;;
76807;SDS011;65758;45.458;11.062;2023-04-01T05:45:44;12.00;;;8.10;;
76807;SDS011;65758;45.458;11.062;2023-04-01T05:48:11;11.80;;;8.10;;
76807;SDS011;65758;45.458;11.062;2023-04-01T05:50:39;13.90;;;8.30;;
76807;SDS011;65758;45.458;11.062;2023-04-01T05:53:08;13.20;;;7.90;;
76807;SDS011;65758;45.458;11.062;2023-04-01T05:55:35;12.80;;;7.30;;
76807;SDS011;65758;45.458;11.062;2023-04-01T05:58:03;9.60;;;7.40;;
76807;SDS011;65758;45.458;11.062;2023-04-01T06:00:30;8.70;;;6.20;;
76807;SDS011;65758;45.458;11.062;2023-04-01T06:03:00;10.90;;;6.00;;
76807;SDS011;65758;45.458;11.062;2023-04-01T06:05:28;10.20;;;7.10;;
76807;SDS011;65758;45.458;11.062;2023-04-01T06:08:05;10.60;;;7.60;;
76807;SDS011;65758;45.458;11.062;2023-04-01T06:14:07;9.30;;;6.50;;
76807;SDS011;65758;45.458;11.062;2023-04-01T06:16:48;11.10;;;8.30;;
76807;SDS011;65758;45.458;11.062;2023-04-01T06:19:47;15.80;;;10.70;;
76807;SDS011;65758;45.458;11.062;2023-04-01T06:22:31;18.60;;;12.10;;
76807;SDS011;65758;45.458;11.062;2023-04-01T06:31:24;17.40;;;11.60;;
76807;SDS011;65758;45.458;11.062;2023-04-01T06:37:06;15.30;;;10.80;;
76807;SDS011;65758;45.458;11.062;2023-04-01T06:40:17;14.80;;;11.90;;
76807;SDS011;65758;45.458;11.062;2023-04-01T06:43:25;18.60;;;10.50;;
76807;SDS011;65758;45.458;11.062;2023-04-01T06:55:40;18.30;;;12.50;;
76807;SDS011;65758;45.458;11.062;2023-04-01T06:58:22;15.20;;;10.20;;
76807;SDS011;65758;45.458;11.062;2023-04-01T07:00:54;13.30;;;9.80;;
76807;SDS011;65758;45.458;11.062;2023-04-01T07:03:32;12.20;;;8.90;;
76807;SDS011;65758;45.458;11.062;2023-04-01T07:06:04;13.80;;;10.30;;
76807;SDS011;65758;45.458;11.062;2023-04-01T07:08:38;14.80;;;9.70;;
76807;SDS011;65758;45.458;11.062;2023-04-01T07:11:09;16.80;;;9.60;;
76807;SDS011;65758;45.458;11.062;2023-04-01T07:19:34;15.80;;;10.20;;
76807;SDS011;65758;45.458;11.062;2023-04-01T07:25:13;17.60;;;11.70;;
76807;SDS011;65758;45.458;11.062;2023-04-01T07:27:47;22.20;;;14.10;;
76807;SDS011;65758;45.458;11.062;2023-04-01T07:30:14;25.40;;;16.20;;
76807;SDS011;65758;45.458;11.062;2023-04-01T07:32:51;27.10;;;19.10;;
76807;SDS011;65758;45.458;11.062;2023-04-01T07:35:32;29.60;;;20.10;;
76807;SDS011;65758;45.458;11.062;2023-04-01T07:38:05;22.40;;;15.00;;
76807;SDS011;65758;45.458;11.062;2023-04-01T07:57:22;28.80;;;20.10;;
76807;SDS011;65758;45.458;11.062;2023-04-01T07:59:59;27.00;;;19.00;;
76807;SDS011;65758;45.458;11.062;2023-04-01T08:05:29;33.90;;;21.50;;
76807;SDS011;65758;45.458;11.062;2023-04-01T08:14:24;36.20;;;24.20;;
76807;SDS011;65758;45.458;11.062;2023-04-01T08:20:39;33.70;;;22.70;;
76807;SDS011;65758;45.458;11.062;2023-04-01T08:23:18;35.40;;;23.70;;
76807;SDS011;65758;45.458;11.062;2023-04-01T08:25:51;31.40;;;22.60;;
76807;SDS011;65758;45.458;11.062;2023-04-01T08:28:27;33.10;;;23.30;;
76807;SDS011;65758;45.458;11.062;2023-04-01T08:33:54;36.60;;;24.70;;
76807;SDS011;65758;45.458;11.062;2023-04-01T08:36:23;37.40;;;24.40;;
76807;SDS011;65758;45.458;11.062;2023-04-01T08:39:09;35.00;;;23.40;;
76807;SDS011;65758;45.458;11.062;2023-04-01T08:54:04;40.60;;;25.90;;
76807;SDS011;65758;45.458;11.062;2023-04-01T08:56:46;33.10;;;22.50;;
76807;SDS011;65758;45.458;11.062;2023-04-01T09:09:05;30.10;;;21.90;;
76807;SDS011;65758;45.458;11.062;2023-04-01T09:31:39;24.80;;;18.00;;
76807;SDS011;65758;45.458;11.062;2023-04-01T09:34:57;30.40;;;19.60;;
76807;SDS011;65758;45.458;11.062;2023-04-01T09:37:41;29.30;;;19.80;;
76807;SDS011;65758;45.458;11.062;2023-04-01T09:56:53;17.60;;;13.30;;
76807;SDS011;65758;45.458;11.062;2023-04-01T09:59:43;24.50;;;17.10;;
76807;SDS011;65758;45.458;11.062;2023-04-01T10:17:16;21.10;;;15.30;;
76807;SDS011;65758;45.458;11.062;2023-04-01T10:25:24;19.10;;;13.60;;
76807;SDS011;65758;45.458;11.062;2023-04-01T10:28:06;19.60;;;13.50;;
76807;SDS011;65758;45.458;11.062;2023-04-01T10:37:12;22.90;;;15.20;;
76807;SDS011;65758;45.458;11.062;2023-04-01T10:40:14;21.10;;;14.70;;
76807;SDS011;65758;45.458;11.062;2023-04-01T10:51:57;18.80;;;14.30;;
76807;SDS011;65758;45.458;11.062;2023-04-01T10:55:14;19.50;;;14.70;;
76807;SDS011;65758;45.458;11.062;2023-04-01T11:14:03;17.30;;;12.20;;
76807;SDS011;65758;45.458;11.062;2023-04-01T11:25:20;14.20;;;11.10;;
76807;SDS011;65758;45.458;11.062;2023-04-01T11:37:03;11.70;;;9.10;;
76807;SDS011;65758;45.458;11.062;2023-04-01T12:01:25;10.90;;;7.70;;
76807;SDS011;65758;45.458;11.062;2023-04-01T12:17:36;7.30;;;5.70;;
76807;SDS011;65758;45.458;11.062;2023-04-01T12:23:18;7.70;;;5.70;;
76807;SDS011;65758;45.458;11.062;2023-04-01T12:32:15;5.30;;;4.20;;
76807;SDS011;65758;45.458;11.062;2023-04-01T12:37:39;2.70;;;2.50;;
76807;SDS011;65758;45.458;11.062;2023-04-01T12:56:42;3.10;;;2.80;;
76807;SDS011;65758;45.458;11.062;2023-04-01T13:03:12;3.80;;;2.90;;
76807;SDS011;65758;45.458;11.062;2023-04-01T13:05:23;3.20;;;2.90;;
76807;SDS011;65758;45.458;11.062;2023-04-01T13:10:53;4.80;;;2.90;;
76807;SDS011;65758;45.458;11.062;2023-04-01T13:13:33;4.10;;;2.90;;
76807;SDS011;65758;45.458;11.062;2023-04-01T13:16:14;3.20;;;2.80;;
76807;SDS011;65758;45.458;11.062;2023-04-01T13:18:54;2.90;;;2.70;;
76807;SDS011;65758;45.458;11.062;2023-04-01T13:21:29;3.40;;;2.90;;
76807;SDS011;65758;45.458;11.062;2023-04-01T13:24:16;2.20;;;1.60;;
76807;SDS011;65758;45.458;11.062;2023-04-01T13:29:21;1.50;;;1.40;;
76807;SDS011;65758;45.458;11.062;2023-04-01T13:38:21;1.60;;;1.30;;
76807;SDS011;65758;45.458;11.062;2023-04-01T13:40:58;3.50;;;1.80;;
76807;SDS011;65758;45.458;11.062;2023-04-01T13:43:39;1.50;;;1.40;;
76807;SDS011;65758;45.458;11.062;2023-04-01T13:48:53;1.20;;;1.10;;
76807;SDS011;65758;45.458;11.062;2023-04-01T13:54:15;3.70;;;1.00;;
76807;SDS011;65758;45.458;11.062;2023-04-01T13:56:57;1.20;;;1.10;;
76807;SDS011;65758;45.458;11.062;2023-04-01T13:59:49;2.00;;;1.20;;
76807;SDS011;65758;45.458;11.062;2023-04-01T14:05:32;3.10;;;1.80;;
76807;SDS011;65758;45.458;11.062;2023-04-01T14:16:55;3.90;;;2.10;;
76807;SDS011;65758;45.458;11.062;2023-04-01T14:28:15;2.60;;;2.20;;
76807;SDS011;65758;45.458;11.062;2023-04-01T14:36:48;2.20;;;2.00;;
76807;SDS011;65758;45.458;11.062;2023-04-01T14:39:48;2.90;;;2.00;;
76807;SDS011;65758;45.458;11.062;2023-04-01T14:45:12;3.10;;;2.00;;
76807;SDS011;65758;45.458;11.062;2023-04-01T14:48:23;2.90;;;2.40;;
76807;SDS011;65758;45.458;11.062;2023-04-01T14:50:54;5.20;;;2.50;;
76807;SDS011;65758;45.458;11.062;2023-04-01T14:53:29;5.10;;;2.30;;
76807;SDS011;65758;45.458;11.062;2023-04-01T14:56:02;2.90;;;2.10;;
76807;SDS011;65758;45.458;11.062;2023-04-01T14:58:49;3.60;;;2.50;;
76807;SDS011;65758;45.458;11.062;2023-04-01T15:10:05;2.60;;;2.30;;
76807;SDS011;65758;45.458;11.062;2023-04-01T15:27:58;3.60;;;2.50;;
76807;SDS011;65758;45.458;11.062;2023-04-01T15:35:51;3.50;;;1.50;;
76807;SDS011;65758;45.458;11.062;2023-04-01T15:38:36;3.10;;;1.60;;
76807;SDS011;65758;45.458;11.062;2023-04-01T15:41:15;2.00;;;1.40;;
76807;SDS011;65758;45.458;11.062;2023-04-01T15:43:50;1.40;;;1.30;;
76807;SDS011;65758;45.458;11.062;2023-04-01T15:57:46;2.30;;;1.50;;
76807;SDS011;65758;45.458;11.062;2023-04-01T16:11:17;1.30;;;0.90;;
76807;SDS011;65758;45.458;11.062;2023-04-01T16:22:01;0.90;;;0.90;;
76807;SDS011;65758;45.458;11.062;2023-04-01T16:27:27;0.90;;;0.90;;
76807;SDS011;65758;45.458;11.062;2023-04-01T16:29:57;0.80;;;0.80;;
76807;SDS011;65758;45.458;11.062;2023-04-01T16:35:20;0.90;;;0.90;;
76807;SDS011;65758;45.458;11.062;2023-04-01T16:37:50;1.50;;;0.70;;
76807;SDS011;65758;45.458;11.062;2023-04-01T16:46:26;1.00;;;0.80;;
76807;SDS011;65758;45.458;11.062;2023-04-01T16:51:47;0.90;;;0.90;;
76807;SDS011;65758;45.458;11.062;2023-04-01T16:54:27;3.00;;;0.90;;
76807;SDS011;65758;45.458;11.062;2023-04-01T17:02:43;1.30;;;0.80;;
76807;SDS011;65758;45.458;11.062;2023-04-01T17:05:16;2.40;;;1.00;;
76807;SDS011;65758;45.458;11.062;2023-04-01T17:07:48;1.20;;;1.00;;
76807;SDS011;65758;45.458;11.062;2023-04-01T17:10:31;2.40;;;1.60;;
76807;SDS011;65758;45.458;11.062;2023-04-01T17:13:34;1.40;;;1.30;;
76807;SDS011;65758;45.458;11.062;2023-04-01T17:21:49;1.30;;;1.00;;
76807;SDS011;65758;45.458;11.062;2023-04-01T17:29:54;4.80;;;1.90;;
76807;SDS011;65758;45.458;11.062;2023-04-01T17:35:35;1.80;;;1.10;;
76807;SDS011;65758;45.458;11.062;2023-04-01T17:46:39;2.90;;;1.90;;
76807;SDS011;65758;45.458;11.062;2023-04-01T17:54:48;6.70;;;2.20;;
76807;SDS011;65758;45.458;11.062;2023-04-01T18:11:19;3.30;;;2.50;;
76807;SDS011;65758;45.458;11.062;2023-04-01T18:16:47;3.90;;;2.20;;
76807;SDS011;65758;45.458;11.062;2023-04-01T18:19:41;3.70;;;2.40;;
76807;SDS011;65758;45.458;11.062;2023-04-01T18:22:29;2.50;;;1.90;;
76807;SDS011;65758;45.458;11.062;2023-04-01T18:25:33;2.60;;;1.90;;
76807;SDS011;65758;45.458;11.062;2023-04-01T18:28:18;3.80;;;2.40;;
76807;SDS011;65758;45.458;11.062;2023-04-01T18:30:58;4.00;;;1.90;;
76807;SDS011;65758;45.458;11.062;2023-04-01T18:33:46;3.10;;;2.10;;
76807;SDS011;65758;45.458;11.062;2023-04-01T18:36:38;5.10;;;2.20;;
76807;SDS011;65758;45.458;11.062;2023-04-01T18:39:17;3.20;;;2.10;;
76807;SDS011;65758;45.458;11.062;2023-04-01T18:44:45;4.10;;;2.40;;
76807;SDS011;65758;45.458;11.062;2023-04-01T18:52:59;6.60;;;2.20;;
76807;SDS011;65758;45.458;11.062;2023-04-01T18:55:46;5.30;;;2.30;;
76807;SDS011;65758;45.458;11.062;2023-04-01T19:01:16;3.70;;;2.10;;
76807;SDS011;65758;45.458;11.062;2023-04-01T19:09:27;2.90;;;2.30;;
76807;SDS011;65758;45.458;11.062;2023-04-01T19:26:03;2.80;;;2.20;;
76807;SDS011;65758;45.458;11.062;2023-04-01T19:31:24;3.50;;;2.30;;
76807;SDS011;65758;45.458;11.062;2023-04-01T19:34:15;5.40;;;2.60;;
76807;SDS011;65758;45.458;11.062;2023-04-01T19:36:57;5.20;;;2.90;;
76807;SDS011;65758;45.458;11.062;2023-04-01T19:39:34;4.50;;;3.20;;
76807;SDS011;65758;45.458;11.062;2023-04-01T19:42:24;4.10;;;2.30;;
76807;SDS011;65758;45.458;11.062;2023-04-01T19:48:12;2.80;;;2.40;;
76807;SDS011;65758;45.458;11.062;2023-04-01T19:51:00;3.60;;;2.40;;
76807;SDS011;65758;45.458;11.062;2023-04-01T19:56:18;5.70;;;3.40;;
76807;SDS011;65758;45.458;11.062;2023-04-01T20:01:23;4.10;;;2.90;;
76807;SDS011;65758;45.458;11.062;2023-04-01T20:04:13;4.20;;;2.90;;
76807;SDS011;65758;45.458;11.062;2023-04-01T20:15:03;4.40;;;3.20;;
76807;SDS011;65758;45.458;11.062;2023-04-01T20:17:52;7.20;;;3.10;;
76807;SDS011;65758;45.458;11.062;2023-04-01T20:20:23;4.50;;;3.30;;
76807;SDS011;65758;45.458;11.062;2023-04-01T20:26:06;6.60;;;3.10;;
76807;SDS011;65758;45.458;11.062;2023-04-01T20:31:15;6.80;;;3.10;;
76807;SDS011;65758;45.458;11.062;2023-04-01T20:45:55;4.40;;;3.70;;
76807;SDS011;65758;45.458;11.062;2023-04-01T20:51:14;16.90;;;11.00;;
76807;SDS011;65758;45.458;11.062;2023-04-01T20:53:51;20.60;;;13.30;;
76807;SDS011;65758;45.458;11.062;2023-04-01T21:02:41;19.60;;;12.90;;
76807;SDS011;65758;45.458;11.062;2023-04-01T21:10:57;23.00;;;14.40;;
76807;SDS011;65758;45.458;11.062;2023-04-01T21:21:52;24.80;;;17.00;;
76807;SDS011;65758;45.458;11.062;2023-04-01T21:52:59;14.80;;;9.30;;
76807;SDS011;65758;45.458;11.062;2023-04-01T21:55:54;27.20;;;17.50;;
76807;SDS011;65758;45.458;11.062;2023-04-01T21:58:49;29.50;;;17.10;;
76807;SDS011;65758;45.458;11.062;2023-04-01T22:12:59;23.50;;;15.40;;
76807;SDS011;65758;45.458;11.062;2023-04-01T22:18:40;23.80;;;15.50;;
76807;SDS011;65758;45.458;11.062;2023-04-01T22:22:13;18.20;;;11.50;;
76807;SDS011;65758;45.458;11.062;2023-04-01T22:24:27;19.70;;;11.70;;
76807;SDS011;65758;45.458;11.062;2023-04-01T22:30:09;25.10;;;15.90;;
76807;SDS011;65758;45.458;11.062;2023-04-01T22:41:14;21.90;;;14.40;;
76807;SDS011;65758;45.458;11.062;2023-04-01T22:43:45;18.90;;;11.70;;
76807;SDS011;65758;45.458;11.062;2023-04-01T22:51:57;17.50;;;11.20;;
76807;SDS011;65758;45.458;11.062;2023-04-01T22:54:42;19.40;;;13.20;;
76807;SDS011;65758;45.458;11.062;2023-04-01T23:00:13;16.60;;;11.30;;
76807;SDS011;65758;45.458;11.062;2023-04-01T23:02:47;15.30;;;10.60;;
76807;SDS011;65758;45.458;11.062;2023-04-01T23:05:36;17.00;;;10.90;;
76807;SDS011;65758;45.458;11.062;2023-04-01T23:10:58;14.60;;;9.80;;
76807;SDS011;65758;45.458;11.062;2023-04-01T23:13:41;13.30;;;8.80;;
76807;SDS011;65758;45.458;11.062;2023-04-01T23:16:14;16.60;;;11.20;;
76807;SDS011;65758;45.458;11.062;2023-04-01T23:24:05;16.90;;;11.30;;
76807;SDS011;65758;45.458;11.062;2023-04-01T23:29:14;18.20;;;11.00;;
76807;SDS011;65758;45.458;11.062;2023-04-01T23:31:47;15.40;;;10.30;;
76807;SDS011;65758;45.458;11.062;2023-04-01T23:34:24;19.80;;;12.30;;
76807;SDS011;65758;45.458;11.062;2023-04-01T23:37:15;19.40;;;10.50;;
76807;SDS011;65758;45.458;11.062;2023-04-01T23:39:45;19.70;;;12.30;;
76807;SDS011;65758;45.458;11.062;2023-04-01T23:42:18;15.00;;;8.60;;
76807;SDS011;65758;45.458;11.062;2023-04-01T23:44:46;18.20;;;11.20;;
76807;SDS011;65758;45.458;11.062;2023-04-01T23:47:17;19.70;;;12.40;;
76807;SDS011;65758;45.458;11.062;2023-04-01T23:49:48;22.10;;;13.30;;
76807;SDS011;65758;45.458;11.062;2023-04-01T23:52:29;18.50;;;12.00;;
76807;SDS011;65758;45.458;11.062;2023-04-01T23:55:03;18.50;;;11.80;;
76807;SDS011;65758;45.458;11.062;2023-04-01T23:57:43;21.60;;;12.40;;
